sensor_id;sensor_type;location;lat;lon;timestamp;pressure;altitude;pressure_sealevel;temperature;humidity
56600;BME280;51832;48.152;11.530;2023-03-14T00:02:58;94036.50;;;15.21;62.33
56600;BME280;51832;48.152;11.530;2023-03-14T00:07:59;94013.66;;;15.68;60.40
56600;BME280;51832;48.152;11.530;2023-03-14T00:12:59;93995.94;;;15.63;60.52
56600;BME280;51832;48.152;11.530;2023-03-14T00:18:00;94010.31;;;15.19;61.88
56600;BME280;51832;48.152;11.530;2023-03-14T00:23:00;94027.63;;;15.12;62.17
56600;BME280;51832;48.152;11.530;2023-03-14T00:28:01;94024.03;;;14.79;63.52
56600;BME280;51832;48.152;11.530;2023-03-14T00:33:01;93991.16;;;14.85;62.78
56600;BME280;51832;48.152;11.530;2023-03-14T00:38:02;94006.44;;;15.12;62.03
56600;BME280;51832;48.152;11.530;2023-03-14T00:43:02;94019.72;;;15.31;61.92
56600;BME280;51832;48.152;11.530;2023-03-14T00:48:02;94032.00;;;15.21;61.75
56600;BME280;51832;48.152;11.530;2023-03-14T00:53:03;94036.41;;;15.07;62.71
56600;BME280;51832;48.152;11.530;2023-03-14T00:58:03;94029.81;;;14.86;64.31
56600;BME280;51832;48.152;11.530;2023-03-14T01:03:04;94044.59;;;14.63;64.83
56600;BME280;51832;48.152;11.530;2023-03-14T01:08:05;94047.09;;;14.78;64.59
56600;BME280;51832;48.152;11.530;2023-03-14T01:13:07;94052.72;;;14.72;66.04
56600;BME280;51832;48.152;11.530;2023-03-14T01:18:08;94067.22;;;15.03;64.47
56600;BME280;51832;48.152;11.530;2023-03-14T01:23:08;94072.88;;;14.91;65.48
56600;BME280;51832;48.152;11.530;2023-03-14T01:28:08;94077.06;;;14.98;66.00
56600;BME280;51832;48.152;11.530;2023-03-14T01:33:09;94085.63;;;14.32;68.49
56600;BME280;51832;48.152;11.530;2023-03-14T01:38:09;94084.91;;;13.87;71.09
56600;BME280;51832;48.152;11.530;2023-03-14T01:43:19;94090.34;;;14.06;72.60
56600;BME280;51832;48.152;11.530;2023-03-14T01:48:20;94088.84;;;13.50;73.75
56600;BME280;51832;48.152;11.530;2023-03-14T01:53:21;94090.69;;;13.50;73.87
56600;BME280;51832;48.152;11.530;2023-03-14T01:58:23;94098.50;;;13.21;76.04
56600;BME280;51832;48.152;11.530;2023-03-14T02:03:26;94097.56;;;12.61;78.03
56600;BME280;51832;48.152;11.530;2023-03-14T02:08:28;94087.59;;;12.28;78.41
56600;BME280;51832;48.152;11.530;2023-03-14T02:13:28;94069.84;;;12.69;77.09
56600;BME280;51832;48.152;11.530;2023-03-14T02:18:29;94074.16;;;12.29;77.99
56600;BME280;51832;48.152;11.530;2023-03-14T02:28:32;94042.47;;;12.34;77.49
56600;BME280;51832;48.152;11.530;2023-03-14T02:33:33;93997.91;;;12.38;77.01
56600;BME280;51832;48.152;11.530;2023-03-14T02:38:38;93973.38;;;12.37;76.90
56600;BME280;51832;48.152;11.530;2023-03-14T02:43:39;93931.84;;;12.63;76.28
56600;BME280;51832;48.152;11.530;2023-03-14T02:48:48;93901.91;;;12.34;77.18
56600;BME280;51832;48.152;11.530;2023-03-14T02:53:49;93904.56;;;12.24;76.96
56600;BME280;51832;48.152;11.530;2023-03-14T02:58:50;93888.44;;;12.35;76.51
56600;BME280;51832;48.152;11.530;2023-03-14T03:03:50;93927.53;;;12.18;75.52
56600;BME280;51832;48.152;11.530;2023-03-14T03:08:51;93924.97;;;11.88;76.03
56600;BME280;51832;48.152;11.530;2023-03-14T03:13:52;93938.41;;;11.81;75.93
56600;BME280;51832;48.152;11.530;2023-03-14T03:18:52;93929.19;;;11.68;76.70
56600;BME280;51832;48.152;11.530;2023-03-14T03:23:53;93949.75;;;11.82;75.42
56600;BME280;51832;48.152;11.530;2023-03-14T03:28:53;93936.03;;;12.00;74.01
56600;BME280;51832;48.152;11.530;2023-03-14T03:33:54;93920.97;;;12.05;73.64
56600;BME280;51832;48.152;11.530;2023-03-14T03:38:54;93922.03;;;12.15;72.33
56600;BME280;51832;48.152;11.530;2023-03-14T03:43:55;93908.34;;;11.92;73.56
56600;BME280;51832;48.152;11.530;2023-03-14T03:48:59;93918.91;;;11.82;73.59
56600;BME280;51832;48.152;11.530;2023-03-14T03:54:00;93918.94;;;11.42;74.04
56600;BME280;51832;48.152;11.530;2023-03-14T03:59:00;93898.88;;;11.76;72.11
56600;BME280;51832;48.152;11.530;2023-03-14T04:04:01;93905.50;;;11.38;72.55
56600;BME280;51832;48.152;11.530;2023-03-14T04:09:01;93909.97;;;11.48;71.19
56600;BME280;51832;48.152;11.530;2023-03-14T04:14:02;93924.72;;;11.44;71.95
56600;BME280;51832;48.152;11.530;2023-03-14T04:19:02;93891.00;;;11.35;72.58
56600;BME280;51832;48.152;11.530;2023-03-14T04:24:03;93894.69;;;11.24;72.79
56600;BME280;51832;48.152;11.530;2023-03-14T04:29:04;93877.84;;;11.30;72.00
56600;BME280;51832;48.152;11.530;2023-03-14T04:34:04;93880.22;;;11.12;72.95
56600;BME280;51832;48.152;11.530;2023-03-14T04:39:04;93876.78;;;11.36;72.55
56600;BME280;51832;48.152;11.530;2023-03-14T04:44:05;93872.59;;;11.20;71.95
56600;BME280;51832;48.152;11.530;2023-03-14T04:49:05;93901.78;;;11.09;72.42
56600;BME280;51832;48.152;11.530;2023-03-14T04:54:07;93872.06;;;11.33;71.41
56600;BME280;51832;48.152;11.530;2023-03-14T04:59:07;93846.28;;;11.20;71.38
56600;BME280;51832;48.152;11.530;2023-03-14T05:04:08;93832.59;;;11.18;71.72
56600;BME280;51832;48.152;11.530;2023-03-14T05:09:08;93831.91;;;11.97;69.38
56600;BME280;51832;48.152;11.530;2023-03-14T05:14:09;93817.50;;;11.49;70.26
56600;BME280;51832;48.152;11.530;2023-03-14T05:19:10;93828.53;;;11.66;69.40
56600;BME280;51832;48.152;11.530;2023-03-14T05:24:11;93841.00;;;11.15;71.84
56600;BME280;51832;48.152;11.530;2023-03-14T05:29:11;93844.69;;;11.14;71.74
56600;BME280;51832;48.152;11.530;2023-03-14T05:34:12;93832.28;;;11.35;71.38
56600;BME280;51832;48.152;11.530;2023-03-14T05:39:12;93820.34;;;11.83;69.52
56600;BME280;51832;48.152;11.530;2023-03-14T05:44:12;93830.09;;;11.88;68.82
56600;BME280;51832;48.152;11.530;2023-03-14T05:49:13;93838.16;;;12.66;68.00
56600;BME280;51832;48.152;11.530;2023-03-14T05:54:13;93832.34;;;12.69;65.32
56600;BME280;51832;48.152;11.530;2023-03-14T05:59:14;93819.34;;;12.33;66.28
56600;BME280;51832;48.152;11.530;2023-03-14T06:04:15;93801.47;;;12.25;67.21
56600;BME280;51832;48.152;11.530;2023-03-14T06:09:15;93810.78;;;12.07;67.66
56600;BME280;51832;48.152;11.530;2023-03-14T06:14:16;93802.00;;;12.22;66.67
56600;BME280;51832;48.152;11.530;2023-03-14T06:19:16;93801.06;;;11.93;68.38
56600;BME280;51832;48.152;11.530;2023-03-14T06:24:17;93806.50;;;12.22;67.78
56600;BME280;51832;48.152;11.530;2023-03-14T06:29:17;93801.91;;;11.83;67.72
56600;BME280;51832;48.152;11.530;2023-03-14T06:34:18;93784.53;;;11.62;68.37
56600;BME280;51832;48.152;11.530;2023-03-14T06:39:18;93771.91;;;11.64;68.16
56600;BME280;51832;48.152;11.530;2023-03-14T06:44:19;93764.47;;;12.40;65.65
56600;BME280;51832;48.152;11.530;2023-03-14T06:49:19;93760.59;;;12.28;65.55
56600;BME280;51832;48.152;11.530;2023-03-14T06:54:19;93774.06;;;12.21;65.59
56600;BME280;51832;48.152;11.530;2023-03-14T06:59:20;93781.22;;;12.16;65.89
56600;BME280;51832;48.152;11.530;2023-03-14T07:04:21;93800.50;;;12.06;66.43
56600;BME280;51832;48.152;11.530;2023-03-14T07:09:21;93808.72;;;11.89;66.46
56600;BME280;51832;48.152;11.530;2023-03-14T07:14:21;93814.94;;;12.19;65.72
56600;BME280;51832;48.152;11.530;2023-03-14T07:19:22;93805.25;;;12.04;65.56
56600;BME280;51832;48.152;11.530;2023-03-14T07:24:23;93801.59;;;12.44;64.37
56600;BME280;51832;48.152;11.530;2023-03-14T07:29:23;93794.41;;;12.10;64.56
56600;BME280;51832;48.152;11.530;2023-03-14T07:34:23;93799.50;;;11.92;64.80
56600;BME280;51832;48.152;11.530;2023-03-14T07:39:24;93804.41;;;12.63;62.80
56600;BME280;51832;48.152;11.530;2023-03-14T07:44:24;93787.81;;;12.96;61.51
56600;BME280;51832;48.152;11.530;2023-03-14T07:49:25;93790.53;;;13.20;60.44
56600;BME280;51832;48.152;11.530;2023-03-14T07:54:25;93779.06;;;12.62;62.24
56600;BME280;51832;48.152;11.530;2023-03-14T07:59:27;93787.94;;;12.81;62.16
56600;BME280;51832;48.152;11.530;2023-03-14T08:04:27;93794.81;;;13.11;60.92
56600;BME280;51832;48.152;11.530;2023-03-14T08:09:27;93782.88;;;13.13;60.04
56600;BME280;51832;48.152;11.530;2023-03-14T08:14:28;93792.16;;;12.77;61.30
56600;BME280;51832;48.152;11.530;2023-03-14T08:19:31;93792.97;;;12.72;61.26
56600;BME280;51832;48.152;11.530;2023-03-14T08:24:32;93796.63;;;12.81;60.13
56600;BME280;51832;48.152;11.530;2023-03-14T08:29:32;93803.63;;;12.62;60.12
56600;BME280;51832;48.152;11.530;2023-03-14T08:34:33;93813.63;;;12.65;60.23
56600;BME280;51832;48.152;11.530;2023-03-14T08:39:33;93810.28;;;12.50;61.03
56600;BME280;51832;48.152;11.530;2023-03-14T08:44:34;93821.56;;;12.60;60.92
56600;BME280;51832;48.152;11.530;2023-03-14T08:49:34;93819.81;;;12.45;61.10
56600;BME280;51832;48.152;11.530;2023-03-14T08:54:35;93827.69;;;12.56;60.26
56600;BME280;51832;48.152;11.530;2023-03-14T08:59:35;93825.94;;;12.80;59.88
56600;BME280;51832;48.152;11.530;2023-03-14T09:04:36;93820.88;;;13.23;58.68
56600;BME280;51832;48.152;11.530;2023-03-14T09:09:36;93829.66;;;13.47;57.99
56600;BME280;51832;48.152;11.530;2023-03-14T09:14:37;93828.44;;;13.63;57.14
56600;BME280;51832;48.152;11.530;2023-03-14T09:19:37;93835.44;;;13.49;57.12
56600;BME280;51832;48.152;11.530;2023-03-14T09:24:37;93825.41;;;13.17;56.93
56600;BME280;51832;48.152;11.530;2023-03-14T09:29:38;93826.22;;;13.12;57.39
56600;BME280;51832;48.152;11.530;2023-03-14T09:34:38;93816.69;;;13.50;56.15
56600;BME280;51832;48.152;11.530;2023-03-14T09:39:39;93815.41;;;13.43;55.69
56600;BME280;51832;48.152;11.530;2023-03-14T09:44:46;93817.34;;;13.61;54.66
56600;BME280;51832;48.152;11.530;2023-03-14T09:49:51;93811.84;;;13.29;55.37
56600;BME280;51832;48.152;11.530;2023-03-14T09:55:06;93806.97;;;13.94;54.19
56600;BME280;51832;48.152;11.530;2023-03-14T10:00:20;93792.13;;;14.16;54.33
56600;BME280;51832;48.152;11.530;2023-03-14T10:05:23;93793.34;;;14.05;55.39
56600;BME280;51832;48.152;11.530;2023-03-14T10:10:25;93797.06;;;14.66;53.74
56600;BME280;51832;48.152;11.530;2023-03-14T10:15:34;93793.34;;;14.85;52.42
56600;BME280;51832;48.152;11.530;2023-03-14T10:20:37;93796.19;;;14.51;52.38
56600;BME280;51832;48.152;11.530;2023-03-14T10:25:44;93786.13;;;14.72;51.19
56600;BME280;51832;48.152;11.530;2023-03-14T10:30:45;93778.16;;;14.35;51.44
56600;BME280;51832;48.152;11.530;2023-03-14T10:41:00;93780.25;;;14.14;51.59
56600;BME280;51832;48.152;11.530;2023-03-14T10:46:18;93775.50;;;14.35;49.68
56600;BME280;51832;48.152;11.530;2023-03-14T10:51:25;93795.28;;;14.18;49.65
56600;BME280;51832;48.152;11.530;2023-03-14T10:56:28;93781.25;;;14.61;48.84
56600;BME280;51832;48.152;11.530;2023-03-14T11:01:48;93838.06;;;14.02;50.49
56600;BME280;51832;48.152;11.530;2023-03-14T11:17:41;93783.44;;;15.23;47.48
56600;BME280;51832;48.152;11.530;2023-03-14T11:28:10;93785.06;;;15.06;46.07
56600;BME280;51832;48.152;11.530;2023-03-14T11:33:38;93784.41;;;15.60;45.65
56600;BME280;51832;48.152;11.530;2023-03-14T11:38:50;93765.38;;;15.12;46.18
56600;BME280;51832;48.152;11.530;2023-03-14T11:43:57;93768.50;;;14.81;46.83
56600;BME280;51832;48.152;11.530;2023-03-14T11:54:16;93761.22;;;14.54;47.51
56600;BME280;51832;48.152;11.530;2023-03-14T11:59:24;93745.97;;;14.65;47.42
56600;BME280;51832;48.152;11.530;2023-03-14T12:04:46;93758.50;;;14.41;47.50
56600;BME280;51832;48.152;11.530;2023-03-14T12:09:51;93751.13;;;15.08;46.48
56600;BME280;51832;48.152;11.530;2023-03-14T12:14:56;93793.34;;;14.24;47.38
56600;BME280;51832;48.152;11.530;2023-03-14T12:20:06;93791.25;;;14.02;47.79
56600;BME280;51832;48.152;11.530;2023-03-14T12:25:26;93783.47;;;14.11;48.13
56600;BME280;51832;48.152;11.530;2023-03-14T12:30:31;93754.28;;;14.58;47.62
56600;BME280;51832;48.152;11.530;2023-03-14T12:35:35;93751.91;;;15.08;46.69
56600;BME280;51832;48.152;11.530;2023-03-14T12:40:39;93774.72;;;15.23;46.01
56600;BME280;51832;48.152;11.530;2023-03-14T12:45:41;93792.94;;;14.92;47.02
56600;BME280;51832;48.152;11.530;2023-03-14T12:50:46;93765.28;;;14.66;47.56
56600;BME280;51832;48.152;11.530;2023-03-14T13:01:05;93768.97;;;14.27;49.35
56600;BME280;51832;48.152;11.530;2023-03-14T13:06:10;93789.44;;;13.98;50.30
56600;BME280;51832;48.152;11.530;2023-03-14T13:11:21;93799.75;;;13.75;51.34
56600;BME280;51832;48.152;11.530;2023-03-14T13:16:22;93787.69;;;13.93;51.67
56600;BME280;51832;48.152;11.530;2023-03-14T13:21:25;93865.50;;;13.82;51.94
56600;BME280;51832;48.152;11.530;2023-03-14T13:26:39;93839.25;;;13.38;53.67
56600;BME280;51832;48.152;11.530;2023-03-14T13:31:44;93870.22;;;13.27;54.42
56600;BME280;51832;48.152;11.530;2023-03-14T13:36:46;93944.66;;;12.90;56.82
56600;BME280;51832;48.152;11.530;2023-03-14T13:41:50;93835.47;;;12.76;57.81
56600;BME280;51832;48.152;11.530;2023-03-14T13:46:51;93851.00;;;12.33;59.09
56600;BME280;51832;48.152;11.530;2023-03-14T13:51:51;93875.84;;;12.22;59.62
56600;BME280;51832;48.152;11.530;2023-03-14T13:57:04;93890.00;;;12.41;59.21
56600;BME280;51832;48.152;11.530;2023-03-14T14:02:13;93913.66;;;11.72;62.77
56600;BME280;51832;48.152;11.530;2023-03-14T14:07:16;93911.78;;;11.62;65.87
56600;BME280;51832;48.152;11.530;2023-03-14T14:12:39;93923.91;;;11.53;68.24
56600;BME280;51832;48.152;11.530;2023-03-14T14:17:51;93971.03;;;11.09;70.02
56600;BME280;51832;48.152;11.530;2023-03-14T14:22:52;93999.84;;;10.68;73.58
56600;BME280;51832;48.152;11.530;2023-03-14T14:27:53;93970.78;;;11.26;72.85
56600;BME280;51832;48.152;11.530;2023-03-14T14:38:17;94005.72;;;9.54;76.13
56600;BME280;51832;48.152;11.530;2023-03-14T14:43:26;94028.59;;;9.32;76.29
56600;BME280;51832;48.152;11.530;2023-03-14T14:48:28;94054.88;;;9.10;75.56
56600;BME280;51832;48.152;11.530;2023-03-14T14:53:37;94044.56;;;9.57;74.67
56600;BME280;51832;48.152;11.530;2023-03-14T14:58:44;94070.34;;;9.34;73.96
56600;BME280;51832;48.152;11.530;2023-03-14T15:03:47;94057.59;;;9.20;74.70
56600;BME280;51832;48.152;11.530;2023-03-14T15:08:49;94050.78;;;9.19;73.84
56600;BME280;51832;48.152;11.530;2023-03-14T15:13:50;94098.88;;;9.25;73.66
56600;BME280;51832;48.152;11.530;2023-03-14T15:18:57;94075.41;;;9.40;73.69
56600;BME280;51832;48.152;11.530;2023-03-14T15:23:57;94112.91;;;9.62;72.57
56600;BME280;51832;48.152;11.530;2023-03-14T15:28:58;94095.97;;;9.48;78.23
56600;BME280;51832;48.152;11.530;2023-03-14T15:33:58;94168.59;;;9.65;78.49
56600;BME280;51832;48.152;11.530;2023-03-14T15:38:59;94159.06;;;8.71;79.62
56600;BME280;51832;48.152;11.530;2023-03-14T15:44:00;94171.72;;;8.96;78.37
56600;BME280;51832;48.152;11.530;2023-03-14T15:49:00;94196.34;;;8.57;77.70
56600;BME280;51832;48.152;11.530;2023-03-14T15:54:01;94178.28;;;8.77;74.07
56600;BME280;51832;48.152;11.530;2023-03-14T15:59:02;94213.16;;;8.77;73.00
56600;BME280;51832;48.152;11.530;2023-03-14T16:04:02;94256.25;;;8.98;72.93
56600;BME280;51832;48.152;11.530;2023-03-14T16:09:02;94228.31;;;9.09;71.66
56600;BME280;51832;48.152;11.530;2023-03-14T16:14:04;94225.94;;;8.90;70.28
56600;BME280;51832;48.152;11.530;2023-03-14T16:19:06;94258.31;;;8.96;69.31
56600;BME280;51832;48.152;11.530;2023-03-14T16:24:07;94267.59;;;9.04;68.79
56600;BME280;51832;48.152;11.530;2023-03-14T16:29:07;94319.19;;;9.15;65.24
56600;BME280;51832;48.152;11.530;2023-03-14T16:34:08;94288.28;;;8.83;61.97
56600;BME280;51832;48.152;11.530;2023-03-14T16:39:09;94302.19;;;8.84;59.04
56600;BME280;51832;48.152;11.530;2023-03-14T16:44:09;94308.00;;;8.86;58.82
56600;BME280;51832;48.152;11.530;2023-03-14T16:49:10;94341.59;;;8.89;57.36
56600;BME280;51832;48.152;11.530;2023-03-14T16:54:10;94330.41;;;9.27;56.08
56600;BME280;51832;48.152;11.530;2023-03-14T16:59:10;94355.75;;;9.38;55.06
56600;BME280;51832;48.152;11.530;2023-03-14T17:04:11;94369.41;;;9.57;54.49
56600;BME280;51832;48.152;11.530;2023-03-14T17:09:11;94398.38;;;9.45;55.71
56600;BME280;51832;48.152;11.530;2023-03-14T17:14:12;94414.53;;;8.87;58.97
56600;BME280;51832;48.152;11.530;2023-03-14T17:19:12;94428.78;;;8.79;56.54
56600;BME280;51832;48.152;11.530;2023-03-14T17:24:13;94428.78;;;9.24;54.92
56600;BME280;51832;48.152;11.530;2023-03-14T17:29:13;94443.16;;;8.77;54.83
56600;BME280;51832;48.152;11.530;2023-03-14T17:34:13;94448.63;;;8.75;54.35
56600;BME280;51832;48.152;11.530;2023-03-14T17:39:14;94494.41;;;8.68;54.22
56600;BME280;51832;48.152;11.530;2023-03-14T17:44:14;94490.72;;;8.80;53.27
56600;BME280;51832;48.152;11.530;2023-03-14T17:49:15;94492.16;;;8.60;52.98
56600;BME280;51832;48.152;11.530;2023-03-14T17:54:15;94495.78;;;8.99;50.65
56600;BME280;51832;48.152;11.530;2023-03-14T17:59:15;94509.41;;;8.84;49.79
56600;BME280;51832;48.152;11.530;2023-03-14T18:04:16;94518.59;;;8.98;49.95
56600;BME280;51832;48.152;11.530;2023-03-14T18:09:17;94511.81;;;8.85;48.93
56600;BME280;51832;48.152;11.530;2023-03-14T18:14:17;94533.84;;;9.13;48.56
56600;BME280;51832;48.152;11.530;2023-03-14T18:19:18;94524.53;;;9.84;47.51
56600;BME280;51832;48.152;11.530;2023-03-14T18:24:19;94537.59;;;9.34;48.14
56600;BME280;51832;48.152;11.530;2023-03-14T18:29:20;94526.88;;;9.07;49.50
56600;BME280;51832;48.152;11.530;2023-03-14T18:34:20;94532.88;;;8.90;50.28
56600;BME280;51832;48.152;11.530;2023-03-14T18:39:21;94545.72;;;9.04;50.07
56600;BME280;51832;48.152;11.530;2023-03-14T18:44:22;94545.59;;;9.39;49.25
56600;BME280;51832;48.152;11.530;2023-03-14T18:49:23;94559.41;;;9.34;50.02
56600;BME280;51832;48.152;11.530;2023-03-14T18:54:23;94557.75;;;9.45;49.85
56600;BME280;51832;48.152;11.530;2023-03-14T18:59:23;94556.31;;;9.37;50.43
56600;BME280;51832;48.152;11.530;2023-03-14T19:04:24;94561.38;;;9.27;52.19
56600;BME280;51832;48.152;11.530;2023-03-14T19:09:24;94562.94;;;9.11;52.76
56600;BME280;51832;48.152;11.530;2023-03-14T19:14:25;94567.66;;;8.98;53.83
56600;BME280;51832;48.152;11.530;2023-03-14T19:19:25;94577.50;;;8.79;54.07
56600;BME280;51832;48.152;11.530;2023-03-14T19:24:25;94585.22;;;8.97;53.97
56600;BME280;51832;48.152;11.530;2023-03-14T19:29:26;94588.97;;;9.01;53.75
56600;BME280;51832;48.152;11.530;2023-03-14T19:34:26;94587.47;;;9.05;53.93
56600;BME280;51832;48.152;11.530;2023-03-14T19:39:27;94595.56;;;9.04;54.37
56600;BME280;51832;48.152;11.530;2023-03-14T19:44:28;94601.69;;;9.21;54.13
56600;BME280;51832;48.152;11.530;2023-03-14T19:49:28;94594.09;;;9.36;54.36
56600;BME280;51832;48.152;11.530;2023-03-14T19:54:28;94605.53;;;9.30;54.79
56600;BME280;51832;48.152;11.530;2023-03-14T19:59:30;94601.88;;;9.59;53.90
56600;BME280;51832;48.152;11.530;2023-03-14T20:04:31;94615.50;;;9.45;54.16
56600;BME280;51832;48.152;11.530;2023-03-14T20:09:33;94629.22;;;9.47;54.63
56600;BME280;51832;48.152;11.530;2023-03-14T20:14:33;94632.34;;;9.60;55.44
56600;BME280;51832;48.152;11.530;2023-03-14T20:19:34;94644.50;;;9.50;55.67
56600;BME280;51832;48.152;11.530;2023-03-14T20:24:34;94642.44;;;9.52;56.24
56600;BME280;51832;48.152;11.530;2023-03-14T20:29:35;94633.19;;;9.78;55.87
56600;BME280;51832;48.152;11.530;2023-03-14T20:34:35;94637.00;;;9.87;55.56
56600;BME280;51832;48.152;11.530;2023-03-14T20:39:38;94675.31;;;9.03;58.53
56600;BME280;51832;48.152;11.530;2023-03-14T20:44:38;94683.00;;;8.69;64.35
56600;BME280;51832;48.152;11.530;2023-03-14T20:49:39;94673.69;;;8.20;67.14
56600;BME280;51832;48.152;11.530;2023-03-14T20:54:39;94676.88;;;7.80;69.86
56600;BME280;51832;48.152;11.530;2023-03-14T20:59:40;94684.91;;;8.39;69.39
56600;BME280;51832;48.152;11.530;2023-03-14T21:04:40;94695.09;;;7.75;71.97
56600;BME280;51832;48.152;11.530;2023-03-14T21:09:41;94696.53;;;7.60;73.42
56600;BME280;51832;48.152;11.530;2023-03-14T21:14:41;94709.03;;;7.39;74.21
56600;BME280;51832;48.152;11.530;2023-03-14T21:19:41;94715.16;;;7.33;75.07
56600;BME280;51832;48.152;11.530;2023-03-14T21:24:44;94715.38;;;7.50;75.28
56600;BME280;51832;48.152;11.530;2023-03-14T21:29:45;94734.06;;;7.35;74.03
56600;BME280;51832;48.152;11.530;2023-03-14T21:34:45;94733.97;;;7.60;72.72
56600;BME280;51832;48.152;11.530;2023-03-14T21:39:47;94739.19;;;7.78;71.81
56600;BME280;51832;48.152;11.530;2023-03-14T21:44:48;94742.03;;;7.59;71.92
56600;BME280;51832;48.152;11.530;2023-03-14T21:49:51;94736.75;;;7.10;73.17
56600;BME280;51832;48.152;11.530;2023-03-14T21:54:53;94752.88;;;7.26;72.34
56600;BME280;51832;48.152;11.530;2023-03-14T21:59:53;94749.47;;;7.07;71.83
56600;BME280;51832;48.152;11.530;2023-03-14T22:04:53;94752.13;;;6.82;71.33
56600;BME280;51832;48.152;11.530;2023-03-14T22:09:54;94766.69;;;6.71;71.16
56600;BME280;51832;48.152;11.530;2023-03-14T22:14:55;94768.19;;;6.36;71.40
56600;BME280;51832;48.152;11.530;2023-03-14T22:19:55;94769.78;;;6.62;70.52
56600;BME280;51832;48.152;11.530;2023-03-14T22:24:56;94753.50;;;6.60;70.21
56600;BME280;51832;48.152;11.530;2023-03-14T22:29:56;94750.63;;;7.11;68.86
56600;BME280;51832;48.152;11.530;2023-03-14T22:34:56;94757.13;;;6.84;69.52
56600;BME280;51832;48.152;11.530;2023-03-14T22:39:57;94761.78;;;7.00;69.57
56600;BME280;51832;48.152;11.530;2023-03-14T22:44:57;94761.03;;;6.50;70.72
56600;BME280;51832;48.152;11.530;2023-03-14T22:49:58;94767.69;;;6.70;69.72
56600;BME280;51832;48.152;11.530;2023-03-14T22:54:58;94764.03;;;6.78;69.24
56600;BME280;51832;48.152;11.530;2023-03-14T22:59:58;94764.91;;;6.90;68.25
56600;BME280;51832;48.152;11.530;2023-03-14T23:04:59;94750.75;;;6.80;68.65
56600;BME280;51832;48.152;11.530;2023-03-14T23:09:59;94752.38;;;7.17;67.27
56600;BME280;51832;48.152;11.530;2023-03-14T23:14:59;94738.34;;;6.93;67.83
56600;BME280;51832;48.152;11.530;2023-03-14T23:20:00;94738.56;;;7.65;65.46
56600;BME280;51832;48.152;11.530;2023-03-14T23:25:01;94739.66;;;7.39;66.47
56600;BME280;51832;48.152;11.530;2023-03-14T23:30:03;94741.34;;;7.33;66.64
56600;BME280;51832;48.152;11.530;2023-03-14T23:35:04;94744.97;;;6.71;68.97
56600;BME280;51832;48.152;11.530;2023-03-14T23:40:05;94749.38;;;6.52;69.77
56600;BME280;51832;48.152;11.530;2023-03-14T23:45:07;94740.81;;;7.06;67.74
56600;BME280;51832;48.152;11.530;2023-03-14T23:50:08;94742.69;;;6.99;68.04
56600;BME280;51832;48.152;11.530;2023-03-14T23:55:08;94743.66;;;7.23;66.71
